Terminal Aerodrome Forecast
Issued by NWS

Home | Current Version | Previous Version | Text Only | Print | Product List | Glossary On
Versions: 1 2 3 4 5 6 7 8 9 10 11 12 13 14 15 16 17
356
FTUS41 KPBZ 271122
TAFFKL
TAF
KFKL 271122Z 2712/2812 15009KT P6SM SCT250
     FM271600 17013G23KT P6SM BKN200
     FM272000 19011G21KT 5SM -SHRA VCTS BKN060CB
     FM280000 20008KT P6SM BKN035
     FM280400 23006KT P6SM BKN015
      AMD LTD TO CLD VIS AND WIND=

USA.gov is the U.S. government's official web portal to all federal, state and local government web resources and services.